Orbital elements of ARIANE 5 R/B
| Launched | 26 September 2003 |
| Flight ended | – |
| Launch site | Europe's Spaceport, Kourou, French Guiana |
| Owner | France |
| NORAD ID | 27946 |
| Date fetched |
Epoch osculation |
Inc. [°] |
Ecc. | RA asc node [hr] |
Arg Peri. [°] |
Mean anom [°] |
Mean motion [rev/day] |
Abs. mag |
| Date fetched |
Epoch osculation |
Inc. [°] |
Ecc. | RA asc node [hr] |
Arg Peri. [°] |
Mean anom [°] |
Mean motion [rev/day] |
Abs. mag |
| 2026 May 04 17:57 | 2026 Apr 29 23:16:57 | 8.1644 | 0.71784 | 23.2085 | 65.9880 | 350.6299 | 2.23566 | 4.743 |
| 2026 May 03 17:57 | 2026 Apr 29 23:16:57 | 8.1644 | 0.71784 | 23.2085 | 65.9880 | 350.6299 | 2.23566 | 4.743 |
| 2026 May 02 17:57 | 2026 Apr 29 23:16:57 | 8.1644 | 0.71784 | 23.2085 | 65.9880 | 350.6299 | 2.23566 | 4.743 |
| 2026 May 01 17:56 | 2026 Apr 29 23:16:57 | 8.1644 | 0.71784 | 23.2085 | 65.9880 | 350.6299 | 2.23566 | 4.743 |
| 2026 Apr 30 17:56 | 2026 Apr 29 23:16:57 | 8.1644 | 0.71784 | 23.2085 | 65.9880 | 350.6299 | 2.23566 | 4.743 |
| 2026 Apr 29 17:57 | 2026 Apr 24 03:44:57 | 8.1602 | 0.71776 | 23.3438 | 61.8586 | 350.6299 | 2.23566 | 4.743 |
| 2026 Apr 28 17:56 | 2026 Apr 24 03:44:57 | 8.1602 | 0.71776 | 23.3438 | 61.8586 | 350.6299 | 2.23566 | 4.743 |
| 2026 Apr 27 17:58 | 2026 Apr 24 03:44:57 | 8.1602 | 0.71776 | 23.3438 | 61.8586 | 350.6299 | 2.23566 | 4.743 |
| 2026 Apr 26 17:58 | 2026 Apr 24 03:44:57 | 8.1602 | 0.71776 | 23.3438 | 61.8586 | 350.6299 | 2.23566 | 4.743 |
| 2026 Apr 25 17:58 | 2026 Apr 24 03:44:57 | 8.1602 | 0.71776 | 23.3438 | 61.8586 | 350.6299 | 2.23566 | 4.743 |
| 2026 Apr 24 17:59 | 2026 Apr 24 03:44:57 | 8.1602 | 0.71776 | 23.3438 | 61.8586 | 350.6299 | 2.23566 | 4.743 |
| 2026 Apr 23 17:57 | 2026 Apr 19 05:40:46 | 8.1559 | 0.71770 | 23.4584 | 58.3615 | 350.6299 | 2.23566 | 4.743 |
| 2026 Apr 22 17:57 | 2026 Apr 19 05:40:46 | 8.1559 | 0.71770 | 23.4584 | 58.3615 | 350.6299 | 2.23566 | 4.743 |
| 2026 Apr 21 17:57 | 2026 Apr 19 05:40:46 | 8.1559 | 0.71770 | 23.4584 | 58.3615 | 350.6299 | 2.23566 | 4.743 |
| 2026 Apr 20 17:57 | 2026 Apr 19 05:40:46 | 8.1559 | 0.71770 | 23.4584 | 58.3615 | 350.6299 | 2.23566 | 4.743 |
| 2026 Apr 19 17:58 | 2026 Apr 19 05:40:46 | 8.1559 | 0.71770 | 23.4584 | 58.3615 | 350.6299 | 2.23566 | 4.743 |
| 2026 Apr 18 17:56 | 2026 Apr 12 23:24:25 | 8.1504 | 0.71760 | 23.6047 | 53.9087 | 350.6299 | 2.23566 | 4.743 |
| 2026 Apr 16 17:57 | 2026 Apr 12 23:24:25 | 8.1504 | 0.71760 | 23.6047 | 53.9087 | 350.6299 | 2.23566 | 4.743 |
| 2026 Apr 14 17:57 | 2026 Apr 12 23:24:25 | 8.1504 | 0.71760 | 23.6047 | 53.9087 | 350.6299 | 2.23566 | 4.743 |
| 2026 Apr 13 17:57 | 2026 Apr 12 23:24:25 | 8.1504 | 0.71760 | 23.6047 | 53.9087 | 350.6299 | 2.23566 | 4.743 |
| 2026 Apr 12 17:57 | 2026 Apr 08 12:04:14 | 8.1452 | 0.71753 | 23.7092 | 50.7311 | 350.6299 | 2.23566 | 4.743 |
| 2026 Apr 11 17:57 | 2026 Apr 08 12:04:14 | 8.1452 | 0.71753 | 23.7092 | 50.7311 | 350.6299 | 2.23566 | 4.743 |
| 2026 Apr 10 17:58 | 2026 Apr 08 12:04:14 | 8.1452 | 0.71753 | 23.7092 | 50.7311 | 350.6299 | 2.23566 | 4.743 |
| 2026 Apr 09 18:01 | 2026 Apr 08 12:04:14 | 8.1452 | 0.71753 | 23.7092 | 50.7311 | 350.6299 | 2.23566 | 4.743 |
| 2026 Apr 08 17:57 | 2026 Apr 08 12:04:14 | 8.1452 | 0.71753 | 23.7092 | 50.7311 | 350.6299 | 2.23566 | 4.743 |
| 2026 Apr 07 17:57 | 2026 Apr 01 08:19:34 | 8.1361 | 0.71739 | 23.8765 | 45.6528 | 350.6299 | 2.23566 | 4.743 |